sensor_id;sensor_type;location;lat;lon;timestamp;pressure;altitude;pressure_sealevel;temperature;humidity
29247;BME280;16272;48.188;9.964;2023-04-03T00:00:22;96342.38;;;2.79;77.88
29247;BME280;16272;48.188;9.964;2023-04-03T00:02:50;96344.09;;;2.94;77.32
29247;BME280;16272;48.188;9.964;2023-04-03T00:05:15;96348.53;;;2.63;77.53
29247;BME280;16272;48.188;9.964;2023-04-03T00:07:40;96344.47;;;2.88;77.41
29247;BME280;16272;48.188;9.964;2023-04-03T00:10:06;96353.25;;;2.87;76.41
29247;BME280;16272;48.188;9.964;2023-04-03T00:12:32;96348.06;;;3.16;75.76
29247;BME280;16272;48.188;9.964;2023-04-03T00:14:57;96345.72;;;3.11;75.95
29247;BME280;16272;48.188;9.964;2023-04-03T00:17:22;96355.97;;;2.85;76.30
29247;BME280;16272;48.188;9.964;2023-04-03T00:19:48;96349.94;;;3.13;75.73
29247;BME280;16272;48.188;9.964;2023-04-03T00:22:13;96355.84;;;2.58;77.14
29247;BME280;16272;48.188;9.964;2023-04-03T00:24:38;96348.28;;;2.68;76.59
29247;BME280;16272;48.188;9.964;2023-04-03T00:27:03;96350.75;;;3.00;75.75
29247;BME280;16272;48.188;9.964;2023-04-03T00:29:31;96351.50;;;2.87;76.64
29247;BME280;16272;48.188;9.964;2023-04-03T00:31:56;96350.00;;;2.98;75.66
29247;BME280;16272;48.188;9.964;2023-04-03T00:34:22;96348.97;;;2.86;75.70
29247;BME280;16272;48.188;9.964;2023-04-03T00:36:49;96356.28;;;2.95;75.38
29247;BME280;16272;48.188;9.964;2023-04-03T00:39:14;96353.47;;;2.23;77.06
29247;BME280;16272;48.188;9.964;2023-04-03T00:41:42;96356.91;;;2.54;77.44
29247;BME280;16272;48.188;9.964;2023-04-03T00:44:21;96346.28;;;3.16;74.82
29247;BME280;16272;48.188;9.964;2023-04-03T00:46:46;96350.53;;;2.88;75.79
29247;BME280;16272;48.188;9.964;2023-04-03T00:49:11;96357.19;;;2.80;74.36
29247;BME280;16272;48.188;9.964;2023-04-03T00:51:37;96366.44;;;2.41;76.40
29247;BME280;16272;48.188;9.964;2023-04-03T00:54:05;96357.19;;;2.80;74.23
29247;BME280;16272;48.188;9.964;2023-04-03T00:56:37;96350.97;;;3.11;73.18
29247;BME280;16272;48.188;9.964;2023-04-03T00:59:08;96355.41;;;2.80;73.36
29247;BME280;16272;48.188;9.964;2023-04-03T01:01:35;96354.97;;;2.88;72.78
29247;BME280;16272;48.188;9.964;2023-04-03T01:04:03;96349.19;;;2.97;73.62
29247;BME280;16272;48.188;9.964;2023-04-03T01:06:31;96348.09;;;2.85;72.79
29247;BME280;16272;48.188;9.964;2023-04-03T01:08:58;96353.16;;;2.88;72.77
29247;BME280;16272;48.188;9.964;2023-04-03T01:11:24;96345.59;;;2.53;72.64
29247;BME280;16272;48.188;9.964;2023-04-03T01:13:50;96350.00;;;2.98;72.44
29247;BME280;16272;48.188;9.964;2023-04-03T01:16:15;96351.72;;;2.99;70.19
29247;BME280;16272;48.188;9.964;2023-04-03T01:18:41;96344.50;;;3.45;70.07
29247;BME280;16272;48.188;9.964;2023-04-03T01:26:40;96354.44;;;3.55;69.67
29247;BME280;16272;48.188;9.964;2023-04-03T01:29:06;96352.56;;;3.42;67.98
29247;BME280;16272;48.188;9.964;2023-04-03T01:34:01;96369.63;;;3.21;68.85
29247;BME280;16272;48.188;9.964;2023-04-03T01:36:29;96365.88;;;3.39;66.79
29247;BME280;16272;48.188;9.964;2023-04-03T01:38:56;96357.44;;;3.63;67.56
29247;BME280;16272;48.188;9.964;2023-04-03T01:41:22;96365.13;;;3.23;68.10
29247;BME280;16272;48.188;9.964;2023-04-03T01:43:48;96361.22;;;3.44;67.57
29247;BME280;16272;48.188;9.964;2023-04-03T01:46:15;96363.84;;;3.44;67.49
29247;BME280;16272;48.188;9.964;2023-04-03T01:48:40;96362.88;;;3.60;66.29
29247;BME280;16272;48.188;9.964;2023-04-03T01:51:05;96358.38;;;3.62;66.79
29247;BME280;16272;48.188;9.964;2023-04-03T01:53:31;96354.44;;;3.69;66.23
29247;BME280;16272;48.188;9.964;2023-04-03T01:55:56;96359.28;;;3.75;66.16
29247;BME280;16272;48.188;9.964;2023-04-03T01:58:22;96355.19;;;3.71;65.54
29247;BME280;16272;48.188;9.964;2023-04-03T02:00:47;96348.59;;;3.64;65.81
29247;BME280;16272;48.188;9.964;2023-04-03T02:03:13;96351.28;;;3.49;66.21
29247;BME280;16272;48.188;9.964;2023-04-03T02:05:39;96352.78;;;3.25;65.58
29247;BME280;16272;48.188;9.964;2023-04-03T02:08:05;96358.19;;;3.22;66.73
29247;BME280;16272;48.188;9.964;2023-04-03T02:10:31;96357.03;;;3.11;66.25
29247;BME280;16272;48.188;9.964;2023-04-03T02:12:59;96349.00;;;3.29;66.11
29247;BME280;16272;48.188;9.964;2023-04-03T02:15:24;96349.00;;;3.29;65.53
29247;BME280;16272;48.188;9.964;2023-04-03T02:17:50;96347.31;;;3.28;65.14
29247;BME280;16272;48.188;9.964;2023-04-03T02:20:16;96345.63;;;3.27;65.31
29247;BME280;16272;48.188;9.964;2023-04-03T02:22:41;96336.06;;;3.40;65.19
29247;BME280;16272;48.188;9.964;2023-04-03T02:25:06;96339.63;;;3.39;64.57
29247;BME280;16272;48.188;9.964;2023-04-03T02:27:32;96343.94;;;3.55;64.77
29247;BME280;16272;48.188;9.964;2023-04-03T02:29:57;96350.69;;;3.59;65.28
29247;BME280;16272;48.188;9.964;2023-04-03T02:32:22;96350.88;;;3.56;64.78
29247;BME280;16272;48.188;9.964;2023-04-03T02:34:48;96349.94;;;3.57;64.98
29247;BME280;16272;48.188;9.964;2023-04-03T02:37:13;96349.56;;;3.63;64.92
29247;BME280;16272;48.188;9.964;2023-04-03T02:39:38;96352.56;;;3.57;65.02
29247;BME280;16272;48.188;9.964;2023-04-03T02:42:04;96351.09;;;3.53;65.18
29247;BME280;16272;48.188;9.964;2023-04-03T02:44:31;96350.88;;;3.56;65.50
29247;BME280;16272;48.188;9.964;2023-04-03T02:46:58;96356.81;;;3.59;65.35
29247;BME280;16272;48.188;9.964;2023-04-03T02:49:23;96346.56;;;3.40;65.97
29247;BME280;16272;48.188;9.964;2023-04-03T02:51:48;96346.38;;;3.15;65.74
29247;BME280;16272;48.188;9.964;2023-04-03T02:54:14;96354.72;;;3.07;65.34
29247;BME280;16272;48.188;9.964;2023-04-03T02:56:39;96351.06;;;3.24;65.75
29247;BME280;16272;48.188;9.964;2023-04-03T02:59:05;96357.44;;;3.05;66.69
29247;BME280;16272;48.188;9.964;2023-04-03T03:01:31;96352.94;;;3.07;66.73
29247;BME280;16272;48.188;9.964;2023-04-03T03:03:58;96361.13;;;2.72;66.50
29247;BME280;16272;48.188;9.964;2023-04-03T03:06:23;96349.69;;;3.18;65.60
29247;BME280;16272;48.188;9.964;2023-04-03T03:08:49;96351.53;;;3.30;64.97
29247;BME280;16272;48.188;9.964;2023-04-03T03:11:15;96348.56;;;3.37;64.18
29247;BME280;16272;48.188;9.964;2023-04-03T03:13:40;96348.09;;;3.44;63.89
29247;BME280;16272;48.188;9.964;2023-04-03T03:16:06;96348.91;;;3.30;64.42
29247;BME280;16272;48.188;9.964;2023-04-03T03:18:32;96343.31;;;3.51;64.45
29247;BME280;16272;48.188;9.964;2023-04-03T03:20:59;96353.06;;;2.75;68.07
29247;BME280;16272;48.188;9.964;2023-04-03T03:23:26;96355.19;;;3.13;65.74
29247;BME280;16272;48.188;9.964;2023-04-03T03:25:57;96351.06;;;3.24;66.11
29247;BME280;16272;48.188;9.964;2023-04-03T03:28:22;96358.19;;;3.22;65.80
29247;BME280;16272;48.188;9.964;2023-04-03T03:30:48;96340.03;;;3.33;66.79
29247;BME280;16272;48.188;9.964;2023-04-03T03:33:13;96346.00;;;3.49;66.26
29247;BME280;16272;48.188;9.964;2023-04-03T03:35:38;96340.47;;;3.25;65.46
29247;BME280;16272;48.188;9.964;2023-04-03T03:38:04;96343.84;;;3.42;66.31
29247;BME280;16272;48.188;9.964;2023-04-03T03:40:29;96340.94;;;3.61;64.95
29247;BME280;16272;48.188;9.964;2023-04-03T03:42:54;96337.44;;;3.60;65.23
29247;BME280;16272;48.188;9.964;2023-04-03T03:45:20;96334.00;;;3.45;65.34
29247;BME280;16272;48.188;9.964;2023-04-03T03:47:45;96339.16;;;3.47;65.06
29247;BME280;16272;48.188;9.964;2023-04-03T03:50:10;96347.69;;;3.22;65.42
29247;BME280;16272;48.188;9.964;2023-04-03T03:52:37;96341.50;;;3.23;65.14
29247;BME280;16272;48.188;9.964;2023-04-03T03:55:02;96350.66;;;3.01;66.03
29247;BME280;16272;48.188;9.964;2023-04-03T03:57:28;96343.81;;;2.84;66.61
29247;BME280;16272;48.188;9.964;2023-04-03T03:59:54;96346.28;;;3.02;66.41
29247;BME280;16272;48.188;9.964;2023-04-03T04:02:20;96341.88;;;3.02;66.54
29247;BME280;16272;48.188;9.964;2023-04-03T04:04:45;96338.88;;;3.23;66.22
29247;BME280;16272;48.188;9.964;2023-04-03T04:07:11;96349.97;;;2.83;66.49
29247;BME280;16272;48.188;9.964;2023-04-03T04:09:36;96345.06;;;3.07;66.55
29247;BME280;16272;48.188;9.964;2023-04-03T04:12:02;96339.63;;;3.10;66.38
29247;BME280;16272;48.188;9.964;2023-04-03T04:14:27;96337.75;;;3.12;65.62
29247;BME280;16272;48.188;9.964;2023-04-03T04:16:52;96346.75;;;3.23;65.60
29247;BME280;16272;48.188;9.964;2023-04-03T04:19:18;96346.75;;;3.23;65.57
29247;BME280;16272;48.188;9.964;2023-04-03T04:21:44;96348.63;;;3.21;65.78
29247;BME280;16272;48.188;9.964;2023-04-03T04:24:10;96341.88;;;3.31;65.00
29247;BME280;16272;48.188;9.964;2023-04-03T04:26:36;96337.59;;;3.44;65.08
29247;BME280;16272;48.188;9.964;2023-04-03T04:29:09;96346.84;;;3.21;65.72
29247;BME280;16272;48.188;9.964;2023-04-03T04:31:35;96341.88;;;3.31;65.04
29247;BME280;16272;48.188;9.964;2023-04-03T04:34:01;96351.25;;;3.21;65.55
29247;BME280;16272;48.188;9.964;2023-04-03T04:36:27;96347.69;;;3.07;65.23
29247;BME280;16272;48.188;9.964;2023-04-03T04:38:52;96350.59;;;3.17;66.15
29247;BME280;16272;48.188;9.964;2023-04-03T04:41:20;96349.09;;;3.13;65.46
29247;BME280;16272;48.188;9.964;2023-04-03T04:43:48;96341.03;;;3.45;64.76
29247;BME280;16272;48.188;9.964;2023-04-03T04:46:14;96340.94;;;3.46;64.26
29247;BME280;16272;48.188;9.964;2023-04-03T04:48:39;96330.91;;;3.53;64.41
29247;BME280;16272;48.188;9.964;2023-04-03T04:51:05;96339.06;;;3.34;65.13
29247;BME280;16272;48.188;9.964;2023-04-03T04:53:31;96333.16;;;3.30;64.85
29247;BME280;16272;48.188;9.964;2023-04-03T04:56:13;96343.75;;;3.00;65.67
29247;BME280;16272;48.188;9.964;2023-04-03T04:58:38;96339.41;;;2.85;65.34
29247;BME280;16272;48.188;9.964;2023-04-03T05:01:08;96342.91;;;3.28;64.99
29247;BME280;16272;48.188;9.964;2023-04-03T05:03:36;96350.59;;;3.17;65.17
29247;BME280;16272;48.188;9.964;2023-04-03T05:06:02;96343.03;;;3.41;64.92
29247;BME280;16272;48.188;9.964;2023-04-03T05:08:28;96343.22;;;3.38;64.52
29247;BME280;16272;48.188;9.964;2023-04-03T05:10:53;96339.63;;;3.54;64.31
29247;BME280;16272;48.188;9.964;2023-04-03T05:13:20;96347.31;;;3.57;63.74
29247;BME280;16272;48.188;9.964;2023-04-03T05:15:46;96349.94;;;3.42;64.10
29247;BME280;16272;48.188;9.964;2023-04-03T05:18:12;96348.63;;;3.35;63.99
29247;BME280;16272;48.188;9.964;2023-04-03T05:20:37;96345.09;;;3.36;63.60
29247;BME280;16272;48.188;9.964;2023-04-03T05:23:03;96353.88;;;3.21;63.87
29247;BME280;16272;48.188;9.964;2023-04-03T05:25:28;96356.13;;;3.27;64.66
29247;BME280;16272;48.188;9.964;2023-04-03T05:27:54;96357.91;;;3.41;64.08
29247;BME280;16272;48.188;9.964;2023-04-03T05:30:26;96356.97;;;3.27;65.05
29247;BME280;16272;48.188;9.964;2023-04-03T05:32:51;96360.25;;;3.31;63.66
29247;BME280;16272;48.188;9.964;2023-04-03T05:35:16;96366.28;;;3.33;65.14
29247;BME280;16272;48.188;9.964;2023-04-03T05:37:42;96366.06;;;3.07;65.39
29247;BME280;16272;48.188;9.964;2023-04-03T05:40:08;96368.84;;;3.04;65.07
29247;BME280;16272;48.188;9.964;2023-04-03T05:42:33;96367.66;;;3.24;65.31
29247;BME280;16272;48.188;9.964;2023-04-03T05:44:59;96358.56;;;3.16;65.87
29247;BME280;16272;48.188;9.964;2023-04-03T05:47:24;96368.13;;;3.02;65.82
29247;BME280;16272;48.188;9.964;2023-04-03T05:49:50;96373.19;;;3.05;64.09
29247;BME280;16272;48.188;9.964;2023-04-03T05:52:22;96364.16;;;2.95;64.71
29247;BME280;16272;48.188;9.964;2023-04-03T05:54:48;96370.00;;;3.15;65.02
29247;BME280;16272;48.188;9.964;2023-04-03T05:57:15;96373.38;;;3.31;66.20
29247;BME280;16272;48.188;9.964;2023-04-03T05:59:41;96375.50;;;2.96;65.61
29247;BME280;16272;48.188;9.964;2023-04-03T06:02:16;96375.19;;;3.45;64.81
29247;BME280;16272;48.188;9.964;2023-04-03T06:04:41;96378.44;;;3.34;65.49
29247;BME280;16272;48.188;9.964;2023-04-03T06:07:11;96377.13;;;3.27;65.02
29247;BME280;16272;48.188;9.964;2023-04-03T06:09:37;96377.31;;;3.24;65.11
29247;BME280;16272;48.188;9.964;2023-04-03T06:12:02;96379.78;;;3.41;65.32
29247;BME280;16272;48.188;9.964;2023-04-03T06:14:27;96377.72;;;3.61;64.34
29247;BME280;16272;48.188;9.964;2023-04-03T06:16:53;96386.44;;;3.61;64.63
29247;BME280;16272;48.188;9.964;2023-04-03T06:19:20;96379.69;;;3.43;65.16
29247;BME280;16272;48.188;9.964;2023-04-03T06:21:46;96376.38;;;3.68;64.67
29247;BME280;16272;48.188;9.964;2023-04-03T06:24:14;96385.56;;;3.32;63.27
29247;BME280;16272;48.188;9.964;2023-04-03T06:26:40;96382.94;;;3.18;65.54
29247;BME280;16272;48.188;9.964;2023-04-03T06:29:06;96390.72;;;3.19;65.17
29247;BME280;16272;48.188;9.964;2023-04-03T06:31:32;96384.25;;;3.39;64.65
29247;BME280;16272;48.188;9.964;2023-04-03T06:33:57;96386.22;;;3.07;65.36
29247;BME280;16272;48.188;9.964;2023-04-03T06:36:31;96383.97;;;3.15;64.68
29247;BME280;16272;48.188;9.964;2023-04-03T06:38:56;96383.44;;;3.67;63.99
29247;BME280;16272;48.188;9.964;2023-04-03T06:41:22;96386.53;;;3.74;64.48
29247;BME280;16272;48.188;9.964;2023-04-03T06:43:47;96388.72;;;3.95;63.89
29247;BME280;16272;48.188;9.964;2023-04-03T06:46:17;96399.38;;;3.64;65.93
29247;BME280;16272;48.188;9.964;2023-04-03T06:48:43;96395.13;;;3.47;65.34
29247;BME280;16272;48.188;9.964;2023-04-03T06:51:33;96394.88;;;3.81;64.43
29247;BME280;16272;48.188;9.964;2023-04-03T06:53:59;96393.44;;;3.75;63.66
29247;BME280;16272;48.188;9.964;2023-04-03T06:56:25;96397.56;;;3.94;63.47
29247;BME280;16272;48.188;9.964;2023-04-03T06:58:51;96400.84;;;3.97;63.27
29247;BME280;16272;48.188;9.964;2023-04-03T07:01:20;96400.59;;;3.88;63.29
29247;BME280;16272;48.188;9.964;2023-04-03T07:03:46;96398.59;;;3.91;62.74
29247;BME280;16272;48.188;9.964;2023-04-03T07:06:14;96403.75;;;3.93;63.86
29247;BME280;16272;48.188;9.964;2023-04-03T07:08:46;96398.31;;;4.10;64.37
29247;BME280;16272;48.188;9.964;2023-04-03T07:11:13;96406.94;;;3.83;63.96
29247;BME280;16272;48.188;9.964;2023-04-03T07:13:38;96408.38;;;3.75;63.57
29247;BME280;16272;48.188;9.964;2023-04-03T07:16:05;96406.50;;;3.48;64.50
29247;BME280;16272;48.188;9.964;2023-04-03T07:18:31;96412.78;;;3.45;64.34
29247;BME280;16272;48.188;9.964;2023-04-03T07:20:57;96408.47;;;4.02;63.88
29247;BME280;16272;48.188;9.964;2023-04-03T07:23:23;96415.59;;;3.85;64.82
29247;BME280;16272;48.188;9.964;2023-04-03T07:25:50;96410.44;;;4.40;63.94
29247;BME280;16272;48.188;9.964;2023-04-03T07:28:18;96415.34;;;4.99;62.53
29247;BME280;16272;48.188;9.964;2023-04-03T07:30:45;96416.13;;;4.47;63.35
29247;BME280;16272;48.188;9.964;2023-04-03T07:33:11;96416.47;;;4.55;63.29
29247;BME280;16272;48.188;9.964;2023-04-03T07:35:37;96411.22;;;4.82;62.09
29247;BME280;16272;48.188;9.964;2023-04-03T07:38:03;96415.06;;;4.49;61.95
29247;BME280;16272;48.188;9.964;2023-04-03T07:40:28;96413.44;;;4.34;63.04
29247;BME280;16272;48.188;9.964;2023-04-03T07:42:54;96412.50;;;4.62;62.87
29247;BME280;16272;48.188;9.964;2023-04-03T07:45:21;96414.41;;;5.13;62.15
29247;BME280;16272;48.188;9.964;2023-04-03T07:47:47;96413.22;;;4.51;63.83
29247;BME280;16272;48.188;9.964;2023-04-03T07:50:13;96421.50;;;4.45;63.11
29247;BME280;16272;48.188;9.964;2023-04-03T07:52:39;96418.38;;;4.93;64.04
29247;BME280;16272;48.188;9.964;2023-04-03T07:55:07;96418.66;;;4.48;63.34
29247;BME280;16272;48.188;9.964;2023-04-03T07:57:32;96426.22;;;4.40;66.09
29247;BME280;16272;48.188;9.964;2023-04-03T07:59:57;96425.69;;;4.20;66.16
29247;BME280;16272;48.188;9.964;2023-04-03T08:02:23;96423.88;;;4.63;63.31
29247;BME280;16272;48.188;9.964;2023-04-03T08:04:48;96432.03;;;4.85;61.30
29247;BME280;16272;48.188;9.964;2023-04-03T08:07:13;96427.47;;;5.14;62.01
29247;BME280;16272;48.188;9.964;2023-04-03T08:09:39;96424.13;;;5.12;62.27
29247;BME280;16272;48.188;9.964;2023-04-03T08:12:05;96425.34;;;4.94;63.26
29247;BME280;16272;48.188;9.964;2023-04-03T08:14:33;96431.50;;;5.46;62.12
29247;BME280;16272;48.188;9.964;2023-04-03T08:17:01;96443.44;;;4.86;63.58
29247;BME280;16272;48.188;9.964;2023-04-03T08:19:29;96438.53;;;5.20;63.50
29247;BME280;16272;48.188;9.964;2023-04-03T08:21:55;96442.69;;;5.37;62.76
29247;BME280;16272;48.188;9.964;2023-04-03T08:24:21;96438.22;;;4.99;61.28
29247;BME280;16272;48.188;9.964;2023-04-03T08:26:47;96439.50;;;4.51;65.23
29247;BME280;16272;48.188;9.964;2023-04-03T08:29:14;96437.34;;;5.51;62.67
29247;BME280;16272;48.188;9.964;2023-04-03T08:31:39;96444.91;;;5.30;61.83
29247;BME280;16272;48.188;9.964;2023-04-03T08:34:05;96445.97;;;4.87;63.14
29247;BME280;16272;48.188;9.964;2023-04-03T08:36:30;96447.94;;;4.56;64.10
29247;BME280;16272;48.188;9.964;2023-04-03T08:38:56;96452.69;;;4.91;64.12
29247;BME280;16272;48.188;9.964;2023-04-03T08:44:00;96459.84;;;4.35;66.01
29247;BME280;16272;48.188;9.964;2023-04-03T08:46:40;96445.31;;;5.62;62.56
29247;BME280;16272;48.188;9.964;2023-04-03T08:49:18;96445.22;;;6.15;59.80
29247;BME280;16272;48.188;9.964;2023-04-03T08:51:48;96448.91;;;5.87;61.38
29247;BME280;16272;48.188;9.964;2023-04-03T08:54:27;96459.47;;;4.68;62.80
29247;BME280;16272;48.188;9.964;2023-04-03T08:57:04;96455.97;;;4.95;62.36
29247;BME280;16272;48.188;9.964;2023-04-03T08:59:34;96441.53;;;6.05;60.16
29247;BME280;16272;48.188;9.964;2023-04-03T09:02:04;96459.34;;;5.50;60.64
29247;BME280;16272;48.188;9.964;2023-04-03T09:04:32;96464.16;;;5.30;61.22
29247;BME280;16272;48.188;9.964;2023-04-03T09:07:07;96451.13;;;5.42;58.79
29247;BME280;16272;48.188;9.964;2023-04-03T09:09:39;96453.66;;;5.43;59.97
29247;BME280;16272;48.188;9.964;2023-04-03T09:15:09;96449.88;;;6.49;56.41
29247;BME280;16272;48.188;9.964;2023-04-03T09:17:59;96453.97;;;6.16;58.36
29247;BME280;16272;48.188;9.964;2023-04-03T09:23:21;96447.47;;;6.09;56.96
29247;BME280;16272;48.188;9.964;2023-04-03T09:25:48;96450.94;;;5.96;57.23
29247;BME280;16272;48.188;9.964;2023-04-03T09:28:16;96452.72;;;6.09;55.49
29247;BME280;16272;48.188;9.964;2023-04-03T09:30:43;96440.06;;;5.75;57.68
29247;BME280;16272;48.188;9.964;2023-04-03T09:33:09;96450.78;;;5.21;58.10
29247;BME280;16272;48.188;9.964;2023-04-03T09:35:37;96443.47;;;5.11;60.24
29247;BME280;16272;48.188;9.964;2023-04-03T09:43:30;96433.25;;;6.84;57.56
29247;BME280;16272;48.188;9.964;2023-04-03T09:48:51;96435.53;;;7.36;54.17
29247;BME280;16272;48.188;9.964;2023-04-03T09:51:16;96437.38;;;7.70;52.96
29247;BME280;16272;48.188;9.964;2023-04-03T09:53:44;96446.34;;;7.09;54.37
29247;BME280;16272;48.188;9.964;2023-04-03T09:58:45;96446.19;;;7.35;52.84
29247;BME280;16272;48.188;9.964;2023-04-03T10:04:07;96441.50;;;7.03;54.57
29247;BME280;16272;48.188;9.964;2023-04-03T10:06:36;96446.34;;;6.37;55.39
29247;BME280;16272;48.188;9.964;2023-04-03T10:09:06;96441.56;;;6.90;53.85
29247;BME280;16272;48.188;9.964;2023-04-03T10:11:32;96442.00;;;6.97;53.57
29247;BME280;16272;48.188;9.964;2023-04-03T10:13:59;96441.59;;;7.26;53.89
29247;BME280;16272;48.188;9.964;2023-04-03T10:16:41;96445.19;;;6.89;52.09
29247;BME280;16272;48.188;9.964;2023-04-03T10:19:34;96443.16;;;6.93;53.61
29247;BME280;16272;48.188;9.964;2023-04-03T10:22:13;96436.44;;;6.28;52.48
29247;BME280;16272;48.188;9.964;2023-04-03T10:24:52;96442.22;;;6.94;51.90
29247;BME280;16272;48.188;9.964;2023-04-03T10:39:02;96440.78;;;5.90;53.53
29247;BME280;16272;48.188;9.964;2023-04-03T10:47:20;96440.81;;;5.51;58.12
29247;BME280;16272;48.188;9.964;2023-04-03T10:57:26;96434.69;;;5.77;55.61
29247;BME280;16272;48.188;9.964;2023-04-03T11:02:33;96424.22;;;6.99;52.60
29247;BME280;16272;48.188;9.964;2023-04-03T11:05:15;96432.72;;;6.43;50.55
29247;BME280;16272;48.188;9.964;2023-04-03T11:07:50;96424.78;;;6.67;52.72
29247;BME280;16272;48.188;9.964;2023-04-03T11:10:24;96433.47;;;6.32;51.87
29247;BME280;16272;48.188;9.964;2023-04-03T11:13:12;96435.88;;;6.35;53.89
29247;BME280;16272;48.188;9.964;2023-04-03T11:15:38;96432.34;;;6.23;53.69
29247;BME280;16272;48.188;9.964;2023-04-03T11:18:13;96427.88;;;6.37;54.17
29247;BME280;16272;48.188;9.964;2023-04-03T11:20:46;96430.41;;;6.38;54.19
29247;BME280;16272;48.188;9.964;2023-04-03T11:23:34;96418.00;;;7.11;52.10
29247;BME280;16272;48.188;9.964;2023-04-03T11:26:18;96418.25;;;7.08;51.91
29247;BME280;16272;48.188;9.964;2023-04-03T11:28:53;96421.59;;;6.99;52.32
29247;BME280;16272;48.188;9.964;2023-04-03T11:31:28;96431.84;;;6.42;54.95
29247;BME280;16272;48.188;9.964;2023-04-03T11:34:06;96418.44;;;5.83;54.28
29247;BME280;16272;48.188;9.964;2023-04-03T11:36:40;96428.03;;;6.10;54.34
29247;BME280;16272;48.188;9.964;2023-04-03T11:42:36;96425.53;;;5.82;56.16
29247;BME280;16272;48.188;9.964;2023-04-03T11:48:05;96419.72;;;5.77;55.81
29247;BME280;16272;48.188;9.964;2023-04-03T11:53:26;96413.94;;;6.83;52.42
29247;BME280;16272;48.188;9.964;2023-04-03T11:58:25;96417.56;;;6.58;56.15
29247;BME280;16272;48.188;9.964;2023-04-03T12:05:48;96405.25;;;6.94;51.23
29247;BME280;16272;48.188;9.964;2023-04-03T12:14:17;96403.94;;;6.99;52.23
29247;BME280;16272;48.188;9.964;2023-04-03T12:16:45;96395.81;;;7.14;52.35
29247;BME280;16272;48.188;9.964;2023-04-03T12:26:38;96393.81;;;7.29;49.51
29247;BME280;16272;48.188;9.964;2023-04-03T12:32:12;96392.38;;;7.25;48.24
29247;BME280;16272;48.188;9.964;2023-04-03T12:38:13;96392.75;;;5.48;58.51
29247;BME280;16272;48.188;9.964;2023-04-03T12:48:31;96374.16;;;7.78;49.66
29247;BME280;16272;48.188;9.964;2023-04-03T12:50:58;96367.44;;;7.74;51.65
29247;BME280;16272;48.188;9.964;2023-04-03T12:53:29;96361.19;;;7.86;51.37
29247;BME280;16272;48.188;9.964;2023-04-03T12:58:44;96367.63;;;7.26;49.92
29247;BME280;16272;48.188;9.964;2023-04-03T13:01:32;96367.78;;;7.47;49.21
29247;BME280;16272;48.188;9.964;2023-04-03T13:03:58;96376.78;;;7.44;50.28
29247;BME280;16272;48.188;9.964;2023-04-03T13:06:27;96375.59;;;7.60;50.48
29247;BME280;16272;48.188;9.964;2023-04-03T13:09:00;96376.28;;;7.39;49.81
29247;BME280;16272;48.188;9.964;2023-04-03T13:11:30;96369.47;;;7.82;47.92
29247;BME280;16272;48.188;9.964;2023-04-03T13:16:25;96374.16;;;6.97;49.89
29247;BME280;16272;48.188;9.964;2023-04-03T13:18:54;96381.06;;;6.52;51.81
29247;BME280;16272;48.188;9.964;2023-04-03T13:21:32;96379.16;;;7.36;50.47
29247;BME280;16272;48.188;9.964;2023-04-03T13:24:01;96389.25;;;6.84;51.62
29247;BME280;16272;48.188;9.964;2023-04-03T13:26:30;96390.28;;;6.46;51.21
29247;BME280;16272;48.188;9.964;2023-04-03T13:29:01;96373.28;;;6.86;52.40
29247;BME280;16272;48.188;9.964;2023-04-03T13:31:32;96382.69;;;6.41;53.28
29247;BME280;16272;48.188;9.964;2023-04-03T13:34:11;96383.53;;;6.66;53.75
29247;BME280;16272;48.188;9.964;2023-04-03T13:36:43;96390.31;;;6.81;52.17
29247;BME280;16272;48.188;9.964;2023-04-03T13:41:37;96374.38;;;7.30;49.51
29247;BME280;16272;48.188;9.964;2023-04-03T13:46:51;96378.19;;;6.90;50.80
29247;BME280;16272;48.188;9.964;2023-04-03T13:49:34;96382.09;;;6.73;51.84
29247;BME280;16272;48.188;9.964;2023-04-03T13:52:20;96371.59;;;6.85;50.85
29247;BME280;16272;48.188;9.964;2023-04-03T13:54:55;96371.22;;;7.13;49.66
29247;BME280;16272;48.188;9.964;2023-04-03T13:57:21;96375.16;;;6.72;52.72
29247;BME280;16272;48.188;9.964;2023-04-03T13:59:47;96366.81;;;6.90;51.51
29247;BME280;16272;48.188;9.964;2023-04-03T14:02:28;96359.00;;;7.69;48.88
29247;BME280;16272;48.188;9.964;2023-04-03T14:04:57;96349.66;;;7.76;49.54
29247;BME280;16272;48.188;9.964;2023-04-03T14:07:28;96358.41;;;8.10;47.81
29247;BME280;16272;48.188;9.964;2023-04-03T14:09:56;96353.97;;;7.88;48.40
29247;BME280;16272;48.188;9.964;2023-04-03T14:12:33;96356.00;;;7.96;50.48
29247;BME280;16272;48.188;9.964;2023-04-03T14:15:02;96359.50;;;7.40;49.74
29247;BME280;16272;48.188;9.964;2023-04-03T14:17:28;96360.94;;;7.78;51.40
29247;BME280;16272;48.188;9.964;2023-04-03T14:19:55;96354.63;;;7.11;49.84
29247;BME280;16272;48.188;9.964;2023-04-03T14:22:29;96351.44;;;7.87;50.64
29247;BME280;16272;48.188;9.964;2023-04-03T14:25:01;96344.16;;;6.98;50.59
29247;BME280;16272;48.188;9.964;2023-04-03T14:27:34;96361.00;;;6.73;49.77
29247;BME280;16272;48.188;9.964;2023-04-03T14:30:04;96345.13;;;6.97;51.05
29247;BME280;16272;48.188;9.964;2023-04-03T14:32:30;96344.44;;;7.07;51.33
29247;BME280;16272;48.188;9.964;2023-04-03T14:34:55;96344.44;;;7.18;51.13
29247;BME280;16272;48.188;9.964;2023-04-03T14:37:25;96352.06;;;7.57;48.99
29247;BME280;16272;48.188;9.964;2023-04-03T14:39:57;96343.16;;;7.46;49.19
29247;BME280;16272;48.188;9.964;2023-04-03T14:42:26;96339.06;;;7.53;48.62
29247;BME280;16272;48.188;9.964;2023-04-03T14:44:52;96335.13;;;7.48;49.38
29247;BME280;16272;48.188;9.964;2023-04-03T14:47:25;96332.34;;;7.38;50.10
29247;BME280;16272;48.188;9.964;2023-04-03T14:49:51;96328.72;;;7.50;47.38
29247;BME280;16272;48.188;9.964;2023-04-03T14:52:39;96335.56;;;7.19;49.33
29247;BME280;16272;48.188;9.964;2023-04-03T14:55:06;96322.34;;;7.98;50.03
29247;BME280;16272;48.188;9.964;2023-04-03T14:57:32;96331.25;;;7.75;49.35
29247;BME280;16272;48.188;9.964;2023-04-03T14:59:58;96328.63;;;7.86;47.15
29247;BME280;16272;48.188;9.964;2023-04-03T15:04:51;96336.63;;;6.21;50.76
29247;BME280;16272;48.188;9.964;2023-04-03T15:07:16;96325.03;;;7.53;49.16
29247;BME280;16272;48.188;9.964;2023-04-03T15:09:42;96328.97;;;7.59;48.00